Time;durP1;ratioP1;P1;durP2;ratioP2;P2;SDS_P1;SDS_P2;PMS_P1;PMS_P2;Temp;Humidity;BMP_temperature;BMP_pressure;BME280_temperature;BME280_humidity;BME280_pressure;Samples;Min_cycle;Max_cycle;Signal;HPM_P1;HPM_P2
2023/06/06 19:55:15;;;;;;;27.42;8.32;;;21.40;50.80;;;;;;5121962;27;20414;-49
2023/06/06 19:57:42;;;;;;;21.38;8.20;;;21.70;51.80;;;;;;5109279;28;20073;-52
2023/06/06 20:00:09;;;;;;;23.27;8.05;;;21.70;52.30;;;;;;5108775;28;20038;-55
2023/06/06 20:02:41;;;;;;;28.55;8.15;;;21.80;52.70;;;;;;5108371;28;20024;-49
2023/06/06 20:05:09;;;;;;;31.95;9.32;;;21.80;52.50;;;;;;5103536;28;20094;-52
2023/06/06 20:07:40;;;;;;;23.45;8.38;;;21.80;52.50;;;;;;5109717;22;20480;-55
2023/06/06 20:10:07;;;;;;;20.10;8.55;;;21.70;52.40;;;;;;5042671;28;20565;-55
2023/06/06 20:12:33;;;;;;;16.02;7.68;;;21.70;52.50;;;;;;5048474;28;20110;-55
2023/06/06 20:14:59;;;;;;;15.10;7.22;;;21.70;52.30;;;;;;5030394;28;20033;-55
2023/06/06 20:17:25;;;;;;;21.27;7.90;;;21.60;52.20;;;;;;5048427;28;20029;-55
2023/06/06 20:19:51;;;;;;;18.33;8.23;;;21.60;52.30;;;;;;5048210;28;20029;-54
2023/06/06 20:22:17;;;;;;;19.45;7.32;;;21.60;52.60;;;;;;5048100;28;20100;-55
2023/06/06 20:24:43;;;;;;;14.35;6.85;;;21.60;52.40;;;;;;5048185;28;20128;-55
2023/06/06 20:27:16;;;;;;;13.13;6.88;;;21.60;52.70;;;;;;5048481;28;20381;-55
2023/06/06 20:29:42;;;;;;;16.58;7.00;;;21.60;52.50;;;;;;5030631;28;20033;-51
2023/06/06 20:32:09;;;;;;;17.88;7.78;;;21.60;52.50;;;;;;5048113;28;20045;-54
2023/06/06 20:34:36;;;;;;;13.02;7.13;;;21.60;52.50;;;;;;5047658;28;20065;-55
2023/06/06 20:37:04;;;;;;;15.75;7.45;;;21.60;52.60;;;;;;5047978;28;20029;-55
2023/06/06 20:39:38;;;;;;;16.77;6.88;;;21.50;52.60;;;;;;5047930;28;20086;-53
2023/06/06 20:42:05;;;;;;;10.63;6.20;;;21.60;52.50;;;;;;5047930;28;20029;-55
2023/06/06 20:44:31;;;;;;;14.10;7.22;;;21.60;52.60;;;;;;5047436;28;20059;-55
2023/06/06 20:46:57;;;;;;;14.00;6.60;;;21.60;52.50;;;;;;5048040;28;20442;-55
2023/06/06 20:49:28;;;;;;;12.65;6.50;;;21.60;52.60;;;;;;5048026;28;20412;-55
2023/06/06 20:51:54;;;;;;;12.02;6.10;;;21.60;52.60;;;;;;5047824;28;20032;-54
2023/06/06 20:54:20;;;;;;;13.48;6.47;;;21.60;52.70;;;;;;5044804;28;20026;-53
2023/06/06 20:56:46;;;;;;;8.73;5.95;;;21.60;52.70;;;;;;5034320;28;20026;-52
2023/06/06 20:59:12;;;;;;;10.57;6.72;;;21.60;52.60;;;;;;5034422;28;20032;-56
2023/06/06 21:01:38;;;;;;;10.75;6.57;;;21.60;52.80;;;;;;5016920;28;20120;-55
2023/06/06 21:04:04;;;;;;;10.93;6.25;;;21.60;52.50;;;;;;5034036;28;20021;-54
2023/06/06 21:06:30;;;;;;;12.50;6.25;;;21.60;52.70;;;;;;5033972;28;20022;-55
2023/06/06 21:08:55;;;;;;;10.93;6.65;;;21.60;53.20;;;;;;5016647;28;20440;-56
2023/06/06 21:11:22;;;;;;;10.88;6.43;;;21.60;52.50;;;;;;5016727;28;20065;-55
2023/06/06 21:13:48;;;;;;;12.60;6.80;;;21.60;52.60;;;;;;5016459;28;20568;-53
2023/06/06 21:16:14;;;;;;;11.20;6.43;;;21.60;52.50;;;;;;5034063;28;20100;-53
2023/06/06 21:18:43;;;;;;;10.45;6.43;;;21.60;52.60;;;;;;5033966;28;20045;-51
2023/06/06 21:21:11;;;;;;;10.43;6.07;;;21.60;52.50;;;;;;5034005;28;20026;-54
2023/06/06 21:23:37;;;;;;;12.95;6.03;;;21.60;52.70;;;;;;5033581;28;20121;-53
2023/06/06 21:26:03;;;;;;;11.98;5.90;;;21.60;52.60;;;;;;5033993;28;20112;-52
2023/06/06 21:28:29;;;;;;;12.32;6.47;;;21.60;52.70;;;;;;5033898;28;20025;-54
2023/06/06 21:30:55;;;;;;;14.20;5.72;;;21.60;52.60;;;;;;5033918;28;20447;-53
2023/06/06 21:33:21;;;;;;;10.25;6.35;;;21.60;52.70;;;;;;5033429;28;20107;-53
2023/06/06 21:35:47;;;;;;;9.52;6.07;;;21.60;52.60;;;;;;5033794;28;20483;-50
2023/06/06 21:38:14;;;;;;;10.18;6.25;;;21.60;52.70;;;;;;5033679;28;20033;-49
2023/06/06 21:40:40;;;;;;;10.65;6.30;;;21.60;52.70;;;;;;5033716;28;20032;-56
2023/06/06 21:43:05;;;;;;;11.02;6.20;;;21.60;52.60;;;;;;5043507;28;20029;-54
2023/06/06 21:45:32;;;;;;;10.95;6.22;;;21.60;52.70;;;;;;5052910;28;20021;-51
2023/06/06 21:47:58;;;;;;;10.45;6.65;;;21.60;52.60;;;;;;5053211;28;20063;-51
2023/06/06 21:50:24;;;;;;;10.95;6.05;;;21.60;52.60;;;;;;5053408;28;20060;-51
2023/06/06 21:52:50;;;;;;;9.73;5.80;;;21.60;52.60;;;;;;5033999;28;20480;-55
2023/06/06 21:55:15;;;;;;;10.98;6.05;;;21.60;52.60;;;;;;5050928;28;20025;-51
2023/06/06 21:57:41;;;;;;;21.85;7.05;;;21.60;53.00;;;;;;5050008;28;20029;-56
2023/06/06 22:00:07;;;;;;;9.95;5.55;;;21.70;53.50;;;;;;5052351;28;20547;-55
2023/06/06 22:02:40;;;;;;;17.25;6.20;;;21.60;53.00;;;;;;5049952;28;20025;-55
2023/06/06 22:05:06;;;;;;;16.20;6.28;;;21.70;53.00;;;;;;5051809;28;20098;-53
2023/06/06 22:07:31;;;;;;;14.88;6.65;;;21.60;53.50;;;;;;5056807;28;20043;-53
2023/06/06 22:09:57;;;;;;;17.27;5.80;;;21.60;53.80;;;;;;5040402;28;20025;-58
2023/06/06 22:12:23;;;;;;;15.52;6.25;;;21.60;53.80;;;;;;5045451;28;20170;-54
2023/06/06 22:14:50;;;;;;;13.05;6.18;;;21.60;53.70;;;;;;5046879;28;20637;-51
2023/06/06 22:17:16;;;;;;;14.90;6.05;;;21.60;53.70;;;;;;5047117;28;20028;-53
2023/06/06 22:19:42;;;;;;;13.30;5.72;;;21.70;53.70;;;;;;5050678;28;20033;-57
2023/06/06 22:22:08;;;;;;;11.45;5.50;;;21.70;53.80;;;;;;5030226;28;20037;-55
2023/06/06 22:24:34;;;;;;;17.25;5.82;;;21.70;54.00;;;;;;5028415;28;20029;-51
2023/06/06 22:27:00;;;;;;;15.02;6.05;;;21.70;55.00;;;;;;5048254;28;20040;-56
2023/06/06 22:29:26;;;;;;;14.38;6.30;;;21.70;54.50;;;;;;5047668;28;20083;-56
2023/06/06 22:31:52;;;;;;;10.20;5.10;;;21.80;54.70;;;;;;5029668;28;20064;-56
2023/06/06 22:34:18;;;;;;;17.15;5.97;;;21.80;54.40;;;;;;5046097;28;20527;-54
2023/06/06 22:36:44;;;;;;;12.82;6.28;;;21.80;54.40;;;;;;5046959;28;20036;-57
2023/06/06 22:39:10;;;;;;;11.95;5.65;;;21.80;54.40;;;;;;5047089;28;20611;-54
2023/06/06 22:41:36;;;;;;;20.10;5.93;;;21.80;54.50;;;;;;5046842;28;20025;-54
2023/06/06 22:44:02;;;;;;;16.98;5.47;;;21.80;54.30;;;;;;5046730;28;20083;-55
2023/06/06 22:46:28;;;;;;;11.80;5.10;;;21.90;54.50;;;;;;5047531;28;20024;-55
2023/06/06 22:48:55;;;;;;;20.52;5.45;;;21.90;54.40;;;;;;5051310;28;20025;-55
2023/06/06 22:51:20;;;;;;;11.27;5.60;;;21.90;54.60;;;;;;5035988;28;20404;-52
2023/06/06 22:53:47;;;;;;;14.90;5.57;;;21.90;54.70;;;;;;5050145;28;20025;-54
2023/06/06 22:56:13;;;;;;;27.83;5.65;;;21.90;55.20;;;;;;5051730;28;20480;-55
2023/06/06 22:58:39;;;;;;;15.20;5.45;;;21.90;54.60;;;;;;5051754;28;20025;-55
2023/06/06 23:01:05;;;;;;;14.07;5.15;;;21.90;54.50;;;;;;5051708;28;20029;-56
2023/06/06 23:03:32;;;;;;;12.10;4.90;;;21.80;54.40;;;;;;5051039;28;20040;-53
2023/06/06 23:05:58;;;;;;;10.77;4.85;;;21.80;54.40;;;;;;5051668;28;20047;-52
2023/06/06 23:08:24;;;;;;;19.05;5.72;;;21.80;54.00;;;;;;5051522;28;20535;-55
2023/06/06 23:10:50;;;;;;;15.73;4.50;;;21.80;54.00;;;;;;5051678;28;20029;-55
2023/06/06 23:13:16;;;;;;;12.20;5.70;;;21.80;53.90;;;;;;5051346;28;20112;-57
2023/06/06 23:15:42;;;;;;;12.38;4.85;;;21.80;54.10;;;;;;5051408;28;20488;-55
2023/06/06 23:18:07;;;;;;;13.55;4.82;;;21.80;53.90;;;;;;5051389;28;20029;-54
2023/06/06 23:20:33;;;;;;;15.07;5.10;;;21.80;53.90;;;;;;5033720;28;20036;-51
2023/06/06 23:22:59;;;;;;;15.43;5.03;;;21.80;53.90;;;;;;5050717;28;20024;-54
2023/06/06 23:25:25;;;;;;;20.85;5.32;;;21.80;54.70;;;;;;5050630;28;20507;-54
2023/06/06 23:27:51;;;;;;;27.00;5.50;;;21.80;54.60;;;;;;5050917;28;20505;-56
2023/06/06 23:30:17;;;;;;;26.23;5.80;;;21.80;54.50;;;;;;5050548;28;20079;-57
2023/06/06 23:32:42;;;;;;;17.33;5.05;;;21.80;54.00;;;;;;5050645;28;20028;-57
2023/06/06 23:35:08;;;;;;;18.38;5.50;;;21.80;54.00;;;;;;5050502;28;20786;-57
2023/06/06 23:37:35;;;;;;;9.20;4.70;;;21.80;53.90;;;;;;5050426;28;20021;-57
2023/06/06 23:40:01;;;;;;;15.18;4.80;;;21.80;53.80;;;;;;5050876;28;20075;-57
2023/06/06 23:42:26;;;;;;;12.27;4.63;;;21.80;53.80;;;;;;5050542;28;20036;-55
2023/06/06 23:44:55;;;;;;;17.67;5.18;;;21.80;53.70;;;;;;5050573;28;20037;-56
2023/06/06 23:47:23;;;;;;;11.60;4.83;;;21.80;53.80;;;;;;5051202;28;20033;-52
2023/06/06 23:49:48;;;;;;;13.40;4.60;;;21.80;53.80;;;;;;5050241;28;20029;-54
2023/06/06 23:52:15;;;;;;;25.70;5.68;;;21.80;53.90;;;;;;5050476;28;20096;-52
2023/06/06 23:54:40;;;;;;;9.75;4.53;;;21.80;53.90;;;;;;5042986;28;20027;-51
2023/06/06 23:57:06;;;;;;;10.68;5.05;;;21.80;53.90;;;;;;5050292;28;20108;-56
2023/06/06 23:59:32;;;;;;;13.60;4.85;;;21.80;54.30;;;;;;5050648;28;20108;-57
